createdAt,value
2022-10-12T00:01:14.218Z,9.70
2022-10-12T00:03:41.072Z,9.70
2022-10-12T00:06:13.341Z,9.70
2022-10-12T00:08:41.518Z,9.70
2022-10-12T00:11:11.765Z,9.60
2022-10-12T00:13:38.567Z,9.60
2022-10-12T00:16:07.204Z,9.60
2022-10-12T00:18:34.910Z,9.60
2022-10-12T00:21:07.502Z,9.60
2022-10-12T00:23:36.225Z,9.60
2022-10-12T00:26:05.812Z,9.50
2022-10-12T00:28:33.843Z,9.60
2022-10-12T00:31:01.370Z,9.50
2022-10-12T00:33:30.852Z,9.50
2022-10-12T00:35:57.773Z,9.50
2022-10-12T00:38:24.601Z,9.40
2022-10-12T00:40:51.388Z,9.40
2022-10-12T00:43:48.031Z,9.40
2022-10-12T00:46:20.803Z,9.40
2022-10-12T00:48:54.907Z,9.40
2022-10-12T00:51:25.148Z,9.40
2022-10-12T00:54:04.304Z,9.30
2022-10-12T00:56:36.019Z,9.30
2022-10-12T00:59:07.010Z,9.40
2022-10-12T01:01:37.902Z,9.30
2022-10-12T01:04:08.491Z,9.30
2022-10-12T01:06:35.665Z,9.30
2022-10-12T01:09:05.063Z,9.30
2022-10-12T01:11:31.843Z,9.30
2022-10-12T01:14:03.626Z,9.30
2022-10-12T01:16:43.294Z,9.20
2022-10-12T01:19:15.254Z,9.20
2022-10-12T01:21:52.594Z,9.20
2022-10-12T01:24:19.310Z,9.20
2022-10-12T01:27:04.860Z,9.20
2022-10-12T01:30:09.409Z,9.20
2022-10-12T01:32:52.705Z,9.20
2022-10-12T01:35:25.721Z,9.20
2022-10-12T01:38:17.768Z,9.10
2022-10-12T01:40:53.321Z,9.10
2022-10-12T01:43:32.458Z,9.10
2022-10-12T01:46:16.893Z,9.10
2022-10-12T01:48:48.678Z,9.10
2022-10-12T01:51:37.269Z,9.10
2022-10-12T01:54:37.940Z,9.00
2022-10-12T01:57:08.686Z,9.00
2022-10-12T02:00:02.703Z,9.00
2022-10-12T02:02:43.053Z,9.00
2022-10-12T02:05:35.989Z,8.90
2022-10-12T02:08:15.605Z,8.90
2022-10-12T02:11:07.911Z,8.90
2022-10-12T02:13:43.746Z,8.90
2022-10-12T02:16:17.698Z,8.90
2022-10-12T02:18:48.107Z,8.90
2022-10-12T02:21:24.239Z,8.80
2022-10-12T02:23:54.144Z,8.80
2022-10-12T02:26:23.832Z,8.80
2022-10-12T02:28:53.118Z,8.80
2022-10-12T02:31:32.428Z,8.80
2022-10-12T02:34:10.552Z,8.80
2022-10-12T02:36:52.458Z,8.80
2022-10-12T02:39:38.659Z,8.80
2022-10-12T02:42:12.743Z,8.80
2022-10-12T02:44:44.577Z,8.70
2022-10-12T02:47:16.653Z,8.70
2022-10-12T02:49:54.470Z,8.70
2022-10-12T02:52:25.816Z,8.70
2022-10-12T02:54:55.240Z,8.70
2022-10-12T02:57:21.984Z,8.60
2022-10-12T02:59:48.706Z,8.60
2022-10-12T03:02:20.007Z,8.60
2022-10-12T03:04:49.352Z,8.60
2022-10-12T03:07:16.098Z,8.60
2022-10-12T03:09:45.086Z,8.60
2022-10-12T03:12:14.302Z,8.60
2022-10-12T03:14:41.203Z,8.60
2022-10-12T03:17:15.099Z,8.60
2022-10-12T03:19:46.605Z,8.60
2022-10-12T03:22:15.921Z,8.60
2022-10-12T03:24:42.676Z,8.60
2022-10-12T03:27:09.479Z,8.60
2022-10-12T03:29:36.228Z,8.60
2022-10-12T03:32:05.154Z,8.60
2022-10-12T03:34:31.914Z,8.60
2022-10-12T03:37:00.965Z,8.60
2022-10-12T03:39:27.789Z,8.50
2022-10-12T03:41:56.740Z,8.50
2022-10-12T03:44:23.622Z,8.50
2022-10-12T03:46:54.934Z,8.50
2022-10-12T03:49:21.815Z,8.50
2022-10-12T03:51:50.797Z,8.40
2022-10-12T03:54:20.106Z,8.40
2022-10-12T03:56:49.131Z,8.40
2022-10-12T03:59:18.333Z,8.40
2022-10-12T04:01:45.210Z,8.40
2022-10-12T04:04:14.204Z,8.40
2022-10-12T04:06:43.367Z,8.40
2022-10-12T04:09:12.437Z,8.40
2022-10-12T04:11:41.299Z,8.40
2022-10-12T04:14:08.156Z,8.40
2022-10-12T04:16:37.298Z,8.40
2022-10-12T04:19:04.097Z,8.30
2022-10-12T04:21:33.215Z,8.30
2022-10-12T04:24:00.009Z,8.30
2022-10-12T04:26:29.049Z,8.30
2022-10-12T04:28:55.866Z,8.30
2022-10-12T04:31:22.690Z,8.30
2022-10-12T04:33:56.796Z,8.30
2022-10-12T04:36:27.191Z,8.20
2022-10-12T04:38:59.945Z,8.20
2022-10-12T04:41:30.491Z,8.20
2022-10-12T04:43:57.302Z,8.20
2022-10-12T04:46:24.148Z,8.10
2022-10-12T04:48:50.990Z,8.10
2022-10-12T04:51:17.823Z,8.10
2022-10-12T04:53:44.556Z,8.10
2022-10-12T04:56:14.022Z,8.10
2022-10-12T04:58:40.842Z,8.10
2022-10-12T05:01:07.794Z,8.10
2022-10-12T05:03:39.482Z,8.00
2022-10-12T05:06:08.557Z,8.00
2022-10-12T05:08:52.968Z,8.00
2022-10-12T05:11:22.492Z,8.00
2022-10-12T05:13:49.299Z,8.00
2022-10-12T05:16:16.187Z,8.00
2022-10-12T05:18:43.021Z,8.00
2022-10-12T05:21:09.782Z,8.00
2022-10-12T05:23:38.792Z,8.00
2022-10-12T05:26:05.932Z,8.00
2022-10-12T05:28:36.952Z,8.00
2022-10-12T05:31:06.673Z,8.00
2022-10-12T05:33:38.491Z,8.00
2022-10-12T05:36:08.633Z,8.00
2022-10-12T05:38:35.458Z,8.00
2022-10-12T05:41:02.207Z,7.90
2022-10-12T05:43:31.293Z,7.90
2022-10-12T05:45:58.393Z,7.90
2022-10-12T05:48:25.325Z,7.90
2022-10-12T05:50:54.316Z,7.90
2022-10-12T05:53:22.386Z,7.90
2022-10-12T05:55:58.060Z,7.90
2022-10-12T05:58:26.812Z,7.90
2022-10-12T06:00:56.315Z,8.00
2022-10-12T06:03:26.184Z,8.00
2022-10-12T06:05:58.249Z,8.00
2022-10-12T06:08:25.157Z,8.00
2022-10-12T06:10:55.095Z,8.00
2022-10-12T06:13:21.959Z,8.00
2022-10-12T06:15:49.373Z,8.10
2022-10-12T06:18:17.077Z,8.10
2022-10-12T06:21:08.848Z,8.10
2022-10-12T06:23:45.048Z,8.10
2022-10-12T06:26:11.808Z,8.10
2022-10-12T06:28:38.681Z,8.10
2022-10-12T06:31:05.674Z,8.20
2022-10-12T06:33:34.623Z,8.20
2022-10-12T06:36:01.339Z,8.20
2022-10-12T06:38:28.206Z,8.20
2022-10-12T06:40:55.397Z,8.20
2022-10-12T06:43:25.036Z,8.30
2022-10-12T06:45:52.283Z,8.30
2022-10-12T06:48:19.305Z,8.40
2022-10-12T06:50:47.061Z,8.40
2022-10-12T06:53:13.878Z,8.40
2022-10-12T06:55:40.757Z,8.50
2022-10-12T06:58:09.848Z,8.50
2022-10-12T07:00:39.086Z,8.60
2022-10-12T07:03:05.964Z,8.60
2022-10-12T07:05:32.765Z,8.70
2022-10-12T07:07:59.622Z,8.70
2022-10-12T07:10:26.477Z,8.80
2022-10-12T07:12:53.284Z,8.90
2022-10-12T07:15:22.309Z,8.90
2022-10-12T07:17:53.607Z,9.00
2022-10-12T07:20:22.694Z,9.00
2022-10-12T07:22:49.430Z,9.10
2022-10-12T07:25:18.296Z,9.20
2022-10-12T07:27:48.447Z,9.20
2022-10-12T07:30:17.478Z,9.20
2022-10-12T07:32:46.093Z,9.30
2022-10-12T07:35:12.926Z,9.40
2022-10-12T07:37:39.973Z,9.40
2022-10-12T07:40:07.838Z,9.50
2022-10-12T07:42:48.857Z,9.60
2022-10-12T07:45:23.551Z,9.70
2022-10-12T07:47:50.286Z,9.80
2022-10-12T07:50:17.185Z,9.90
2022-10-12T07:52:43.972Z,10.00
2022-10-12T07:55:10.733Z,10.10
2022-10-12T07:57:38.418Z,10.20
2022-10-12T08:04:25.151Z,10.40
2022-10-12T08:06:51.937Z,10.60
2022-10-12T08:09:20.938Z,10.60
2022-10-12T08:11:49.918Z,10.80
2022-10-12T08:14:18.227Z,10.90
2022-10-12T08:16:45.654Z,10.90
2022-10-12T08:19:13.154Z,11.20
2022-10-12T08:21:41.905Z,11.50
2022-10-12T08:24:12.497Z,12.00
2022-10-12T08:26:42.162Z,12.90
2022-10-12T08:29:10.675Z,13.70
2022-10-12T08:31:39.583Z,14.60
2022-10-12T08:34:08.546Z,15.40
2022-10-12T08:36:35.438Z,16.10
2022-10-12T08:39:29.746Z,16.70
2022-10-12T08:42:23.276Z,17.30
2022-10-12T08:44:55.096Z,17.70
2022-10-12T08:47:45.417Z,18.20
2022-10-12T08:50:23.976Z,18.50
2022-10-12T08:52:59.825Z,18.70
2022-10-12T08:55:36.694Z,19.10
2022-10-12T08:58:10.935Z,19.20
2022-10-12T09:00:44.034Z,19.40
2022-10-12T09:03:56.494Z,19.90
2022-10-12T09:06:28.743Z,20.00
2022-10-12T09:09:01.395Z,20.10
2022-10-12T09:12:01.795Z,20.50
2022-10-12T09:14:32.746Z,20.80
2022-10-12T09:17:01.972Z,20.70
2022-10-12T09:19:36.445Z,20.90
2022-10-12T09:22:04.623Z,21.10
2022-10-12T09:24:39.264Z,21.20
2022-10-12T09:27:15.385Z,21.20
2022-10-12T09:29:50.126Z,21.10
2022-10-12T09:32:38.518Z,21.00
2022-10-12T09:35:10.784Z,20.70
2022-10-12T09:37:37.899Z,20.60
2022-10-12T09:40:05.444Z,20.40
2022-10-12T09:42:35.472Z,19.90
2022-10-12T09:45:20.074Z,19.50
2022-10-12T09:48:16.530Z,18.90
2022-10-12T09:50:52.564Z,18.40
2022-10-12T09:53:45.898Z,18.00
2022-10-12T09:56:49.879Z,17.40
2022-10-12T09:59:31.466Z,17.00
2022-10-12T10:02:05.803Z,16.80
2022-10-12T10:04:38.721Z,16.60
2022-10-12T10:07:33.473Z,16.50
2022-10-12T10:10:12.288Z,16.40
2022-10-12T10:12:51.404Z,16.40
2022-10-12T10:15:29.769Z,16.30
2022-10-12T10:18:03.455Z,16.10
2022-10-12T10:20:36.860Z,16.00
2022-10-12T10:23:06.520Z,15.90
2022-10-12T10:25:34.452Z,15.70
2022-10-12T10:28:22.103Z,15.70
2022-10-12T10:31:03.884Z,15.60
2022-10-12T10:33:35.055Z,15.60
2022-10-12T10:36:21.254Z,15.40
2022-10-12T10:39:07.996Z,15.30
2022-10-12T10:41:41.558Z,15.30
2022-10-12T10:44:29.051Z,15.30
2022-10-12T10:47:03.064Z,15.20
2022-10-12T10:54:14.583Z,15.10
2022-10-12T10:56:44.513Z,15.20
2022-10-12T10:59:24.947Z,15.10
2022-10-12T11:01:58.119Z,15.20
2022-10-12T11:04:39.722Z,15.20
2022-10-12T11:07:31.444Z,15.20
2022-10-12T11:10:02.592Z,15.10
2022-10-12T11:12:44.859Z,15.20
2022-10-12T11:15:25.964Z,15.10
2022-10-12T11:17:57.591Z,15.10
2022-10-12T11:20:37.127Z,15.10
2022-10-12T11:23:27.280Z,15.10
2022-10-12T11:26:09.221Z,15.10
2022-10-12T11:28:39.394Z,15.10
2022-10-12T11:31:14.448Z,15.20
2022-10-12T11:33:50.346Z,15.20
2022-10-12T11:36:23.625Z,15.20
2022-10-12T11:38:56.694Z,15.30
2022-10-12T11:42:09.803Z,15.20
2022-10-12T11:44:47.774Z,15.20
2022-10-12T11:47:47.098Z,15.20
2022-10-12T11:50:32.604Z,15.30
2022-10-12T11:53:05.430Z,15.30
2022-10-12T11:55:45.359Z,15.30
2022-10-12T11:58:59.319Z,15.30
2022-10-12T12:01:56.454Z,15.40
2022-10-12T12:04:41.709Z,15.40
2022-10-12T12:07:44.663Z,15.40
2022-10-12T12:10:26.556Z,15.40
2022-10-12T12:13:13.093Z,15.40
2022-10-12T12:16:00.780Z,15.40
2022-10-12T12:18:35.399Z,15.40
2022-10-12T12:21:06.379Z,15.40
2022-10-12T12:23:36.969Z,15.40
2022-10-12T12:26:17.144Z,15.40
2022-10-12T12:29:07.359Z,15.30
2022-10-12T12:31:34.421Z,15.30
2022-10-12T12:34:17.160Z,15.30
2022-10-12T12:36:46.824Z,15.30
2022-10-12T12:39:34.944Z,15.30
2022-10-12T12:42:04.580Z,15.30
2022-10-12T12:44:36.654Z,15.30
2022-10-12T12:47:33.097Z,15.30
2022-10-12T12:50:23.525Z,15.30
2022-10-12T12:52:50.832Z,15.30
2022-10-12T12:55:49.200Z,15.20
2022-10-12T12:58:30.346Z,15.20
2022-10-12T13:01:05.890Z,15.20
2022-10-12T13:03:51.516Z,15.30
2022-10-12T13:06:56.284Z,15.20
2022-10-12T13:09:38.126Z,15.20
2022-10-12T13:12:44.590Z,15.20
2022-10-12T13:15:20.050Z,15.20
2022-10-12T13:17:52.759Z,15.20
2022-10-12T13:20:27.035Z,15.20
2022-10-12T13:22:57.985Z,15.20
2022-10-12T13:25:30.225Z,15.20
2022-10-12T13:27:58.341Z,15.20
2022-10-12T13:30:58.830Z,15.20
2022-10-12T13:33:35.848Z,15.30
2022-10-12T13:36:14.971Z,15.20
2022-10-12T13:38:44.246Z,15.20
2022-10-12T13:41:17.351Z,15.30
2022-10-12T13:43:48.626Z,15.30
2022-10-12T13:46:48.301Z,15.30
2022-10-12T13:49:16.712Z,15.20
2022-10-12T13:51:47.689Z,15.30
2022-10-12T13:54:25.349Z,15.30
2022-10-12T13:57:00.312Z,15.30
2022-10-12T13:59:31.015Z,15.30
2022-10-12T14:02:00.910Z,15.30
2022-10-12T14:04:33.058Z,15.30
2022-10-12T14:07:04.169Z,15.20
2022-10-12T14:09:36.402Z,15.20
2022-10-12T14:12:03.625Z,15.20
2022-10-12T14:14:38.412Z,15.10
2022-10-12T14:17:07.700Z,15.20
2022-10-12T14:19:45.456Z,15.20
2022-10-12T14:22:19.546Z,15.20
2022-10-12T14:24:49.008Z,15.20
2022-10-12T14:27:23.825Z,15.20
2022-10-12T14:29:55.385Z,15.20
2022-10-12T14:32:26.474Z,15.10
2022-10-12T14:35:11.766Z,15.10
2022-10-12T14:37:38.751Z,15.10
2022-10-12T14:40:29.555Z,15.00
2022-10-12T14:43:14.857Z,15.10
2022-10-12T14:45:41.804Z,15.10
2022-10-12T14:48:18.793Z,15.10
2022-10-12T14:50:50.645Z,15.10
2022-10-12T14:53:17.439Z,15.00
2022-10-12T14:55:48.534Z,15.00
2022-10-12T14:58:18.114Z,15.00
2022-10-12T15:00:45.338Z,15.00
2022-10-12T15:03:14.474Z,15.00
2022-10-12T15:05:41.318Z,14.90
2022-10-12T15:08:09.306Z,15.00
2022-10-12T15:10:38.377Z,14.90
2022-10-12T15:13:05.252Z,15.00
2022-10-12T15:15:44.207Z,15.00
2022-10-12T15:18:11.046Z,14.90
2022-10-12T15:20:38.280Z,15.00
2022-10-12T15:23:06.211Z,14.90
2022-10-12T15:25:41.607Z,15.00
2022-10-12T15:28:10.961Z,14.90
2022-10-12T15:30:52.111Z,14.90
2022-10-12T15:33:25.380Z,14.90
2022-10-12T15:35:52.235Z,14.90
2022-10-12T15:38:19.114Z,14.80
2022-10-12T15:40:46.215Z,14.80
2022-10-12T15:43:13.082Z,14.80
2022-10-12T15:45:40.759Z,14.80
2022-10-12T15:48:09.347Z,14.80
2022-10-12T15:50:42.368Z,14.80
2022-10-12T15:53:15.235Z,14.80
2022-10-12T15:55:42.170Z,14.70
2022-10-12T15:58:09.051Z,14.70
2022-10-12T16:00:38.476Z,14.70
2022-10-12T16:03:05.441Z,14.60
2022-10-12T16:05:35.781Z,14.60
2022-10-12T16:08:04.873Z,14.60
2022-10-12T16:10:38.060Z,14.60
2022-10-12T16:13:07.838Z,14.50
2022-10-12T16:15:37.210Z,14.50
2022-10-12T16:18:05.151Z,14.50
2022-10-12T16:20:37.532Z,14.40
2022-10-12T16:23:06.904Z,14.40
2022-10-12T16:25:40.955Z,14.40
2022-10-12T16:28:08.048Z,14.30
2022-10-12T16:30:34.789Z,14.30
2022-10-12T16:33:01.784Z,14.30
2022-10-12T16:35:30.602Z,14.30
2022-10-12T16:37:59.683Z,14.20
2022-10-12T16:40:28.910Z,14.20
2022-10-12T16:42:55.719Z,14.20
2022-10-12T16:45:25.611Z,14.10
2022-10-12T16:47:54.758Z,14.10
2022-10-12T16:50:24.076Z,14.10
2022-10-12T16:52:51.939Z,14.10
2022-10-12T16:55:19.825Z,14.00
2022-10-12T16:57:46.963Z,14.00
2022-10-12T17:00:16.778Z,13.90
2022-10-12T17:02:43.621Z,13.90
2022-10-12T17:05:10.415Z,13.90
2022-10-12T17:07:37.156Z,13.80
2022-10-12T17:10:04.304Z,13.80
2022-10-12T17:12:31.145Z,13.80
2022-10-12T17:14:57.923Z,13.80
2022-10-12T17:17:26.785Z,13.70
2022-10-12T17:19:53.614Z,13.70
2022-10-12T17:22:20.394Z,13.70
2022-10-12T17:24:47.270Z,13.60
2022-10-12T17:27:16.795Z,13.60
2022-10-12T17:29:46.059Z,13.60
2022-10-12T17:32:16.164Z,13.50
2022-10-12T17:34:44.998Z,13.50
2022-10-12T17:37:13.355Z,13.50
2022-10-12T17:39:45.552Z,13.40
2022-10-12T17:42:12.828Z,13.40
2022-10-12T17:44:41.647Z,13.40
2022-10-12T17:47:08.388Z,13.30
2022-10-12T17:50:00.413Z,13.30
2022-10-12T17:52:31.575Z,13.30
2022-10-12T17:54:58.298Z,13.30
2022-10-12T17:57:27.219Z,13.20
2022-10-12T17:59:54.027Z,13.20
2022-10-12T18:02:22.289Z,13.20
2022-10-12T18:04:49.188Z,13.20
2022-10-12T18:07:16.241Z,13.20
2022-10-12T18:09:45.461Z,13.10
2022-10-12T18:12:12.366Z,13.10
2022-10-12T18:14:48.634Z,13.10
2022-10-12T18:17:17.616Z,13.10
2022-10-12T18:19:45.893Z,13.00
2022-10-12T18:22:12.848Z,13.00
2022-10-12T18:24:45.944Z,13.00
2022-10-12T18:27:15.011Z,13.00
2022-10-12T18:29:42.701Z,13.00
2022-10-12T18:32:12.655Z,13.00
2022-10-12T18:34:40.690Z,13.00
2022-10-12T18:37:09.996Z,12.90
2022-10-12T18:39:42.394Z,12.90
2022-10-12T18:42:11.712Z,12.90
2022-10-12T18:44:40.336Z,12.90
2022-10-12T18:47:07.454Z,12.80
2022-10-12T18:49:36.918Z,12.90
2022-10-12T18:52:09.593Z,12.90
2022-10-12T18:54:38.986Z,12.80
2022-10-12T18:57:05.897Z,12.80
2022-10-12T18:59:36.032Z,12.80
2022-10-12T19:02:02.940Z,12.80
2022-10-12T19:04:30.190Z,12.70
2022-10-12T19:06:58.016Z,12.70
2022-10-12T19:09:24.886Z,12.70
2022-10-12T19:11:54.224Z,12.70
2022-10-12T19:14:21.145Z,12.70
2022-10-12T19:16:53.442Z,12.70
2022-10-12T19:19:23.115Z,12.60
2022-10-12T19:21:54.172Z,12.60
2022-10-12T19:24:23.360Z,12.60
2022-10-12T19:26:54.856Z,12.60
2022-10-12T19:29:21.660Z,12.60
2022-10-12T19:31:50.147Z,12.50
2022-10-12T19:34:18.903Z,12.50
2022-10-12T19:36:48.345Z,12.50
2022-10-12T19:39:21.453Z,12.50
2022-10-12T19:41:49.509Z,12.50
2022-10-12T19:44:19.342Z,12.50
2022-10-12T19:46:51.435Z,12.40
2022-10-12T19:49:21.077Z,12.40
2022-10-12T19:51:50.142Z,12.40
2022-10-12T19:54:17.064Z,12.40
2022-10-12T19:56:43.988Z,12.40
2022-10-12T19:59:13.108Z,12.40
2022-10-12T20:01:40.638Z,12.40
2022-10-12T20:04:12.047Z,12.40
2022-10-12T20:06:39.158Z,12.40
2022-10-12T20:09:07.541Z,12.30
2022-10-12T20:11:35.164Z,12.30
2022-10-12T20:14:04.588Z,12.30
2022-10-12T20:16:36.469Z,12.30
2022-10-12T20:19:05.022Z,12.30
2022-10-12T20:21:32.091Z,12.30
2022-10-12T20:23:58.900Z,12.20
2022-10-12T20:26:28.867Z,12.20
2022-10-12T20:28:55.763Z,12.20
2022-10-12T20:31:24.506Z,12.20
2022-10-12T20:33:54.558Z,12.20
2022-10-12T20:36:26.321Z,12.10
2022-10-12T20:38:59.861Z,12.10
2022-10-12T20:41:27.616Z,12.10
2022-10-12T20:43:56.267Z,12.10
2022-10-12T20:46:23.354Z,12.10
2022-10-12T20:48:52.527Z,12.10
2022-10-12T20:51:29.049Z,12.10
2022-10-12T20:53:59.271Z,12.10
2022-10-12T20:56:29.918Z,12.10
2022-10-12T20:58:57.337Z,12.10
2022-10-12T21:01:26.955Z,12.00
2022-10-12T21:03:57.093Z,12.00
2022-10-12T21:06:24.366Z,12.00
2022-10-12T21:08:52.979Z,11.90
2022-10-12T21:11:20.248Z,11.90
2022-10-12T21:13:47.328Z,11.90
2022-10-12T21:16:14.384Z,11.90
2022-10-12T21:18:41.875Z,11.90
2022-10-12T21:21:18.922Z,11.90
2022-10-12T21:23:53.065Z,11.80
2022-10-12T21:26:23.924Z,11.80
2022-10-12T21:28:53.891Z,11.80
2022-10-12T21:31:21.426Z,11.80
2022-10-12T21:33:48.279Z,11.80
2022-10-12T21:36:21.470Z,11.80
2022-10-12T21:38:48.865Z,11.70
2022-10-12T21:41:17.420Z,11.70
2022-10-12T21:43:44.383Z,11.70
2022-10-12T21:46:19.924Z,11.60
2022-10-12T21:48:49.141Z,11.60
2022-10-12T21:51:16.421Z,11.60
2022-10-12T21:53:43.117Z,11.60
2022-10-12T21:56:14.217Z,11.60
2022-10-12T21:58:41.287Z,11.50
2022-10-12T22:01:14.836Z,11.50
2022-10-12T22:03:45.354Z,11.50
2022-10-12T22:06:19.947Z,11.50
2022-10-12T22:09:02.617Z,11.50
2022-10-12T22:11:31.053Z,11.50
2022-10-12T22:14:00.530Z,11.50
2022-10-12T22:16:29.218Z,11.40
2022-10-12T22:19:00.134Z,11.40
2022-10-12T22:21:32.630Z,11.40
2022-10-12T22:24:00.449Z,11.30
2022-10-12T22:26:27.867Z,11.30
2022-10-12T22:28:57.892Z,11.30
2022-10-12T22:31:27.342Z,11.30
2022-10-12T22:33:55.850Z,11.30
2022-10-12T22:36:22.747Z,11.30
2022-10-12T22:38:49.487Z,11.30
2022-10-12T22:41:19.004Z,11.20
2022-10-12T22:43:53.812Z,11.20
2022-10-12T22:46:27.290Z,11.20
2022-10-12T22:48:56.770Z,11.20
2022-10-12T22:51:35.722Z,11.20
2022-10-12T22:54:05.782Z,11.10
2022-10-12T22:56:32.839Z,11.10
2022-10-12T22:59:02.242Z,11.10
2022-10-12T23:01:29.559Z,11.10
2022-10-12T23:04:01.165Z,11.00
2022-10-12T23:06:30.181Z,11.00
2022-10-12T23:08:57.284Z,11.00
2022-10-12T23:11:26.651Z,11.00
2022-10-12T23:13:59.502Z,11.00
2022-10-12T23:16:28.907Z,10.90
2022-10-12T23:18:59.505Z,10.90
2022-10-12T23:21:28.006Z,10.80
2022-10-12T23:23:59.042Z,10.80
2022-10-12T23:26:28.484Z,10.80
2022-10-12T23:29:00.257Z,10.80
2022-10-12T23:31:29.562Z,10.80
2022-10-12T23:34:05.102Z,10.80
2022-10-12T23:36:36.654Z,10.80
2022-10-12T23:39:05.579Z,10.70
2022-10-12T23:41:37.157Z,10.70
2022-10-12T23:44:04.033Z,10.60
2022-10-12T23:46:33.465Z,10.60
2022-10-12T23:49:02.285Z,10.60
2022-10-12T23:51:31.534Z,10.60
2022-10-12T23:54:03.206Z,10.50
2022-10-12T23:56:29.967Z,10.50
2022-10-12T23:59:01.399Z,10.50
